createdAt,value
2022-08-17T00:00:00.099Z,26.6
2022-08-17T00:05:00.090Z,26.5
2022-08-17T00:10:00.131Z,26.5
2022-08-17T00:15:00.084Z,26.5
2022-08-17T00:20:00.143Z,26.5
2022-08-17T00:25:00.105Z,26.5
2022-08-17T00:30:00.115Z,26.5
2022-08-17T00:35:00.093Z,26.5
2022-08-17T00:40:00.253Z,26.5
2022-08-17T00:45:00.084Z,26.4
2022-08-17T00:50:00.100Z,26.4
2022-08-17T00:55:00.116Z,26.4
2022-08-17T01:00:02.063Z,26.4
2022-08-17T01:05:00.116Z,26.4
2022-08-17T01:10:00.471Z,26.4
2022-08-17T01:15:00.102Z,26.4
2022-08-17T01:20:00.131Z,26.4
2022-08-17T01:25:00.977Z,25.8
2022-08-17T01:30:00.100Z,26.0
2022-08-17T01:35:00.084Z,26.1
2022-08-17T01:40:00.224Z,26.2
2022-08-17T01:45:00.074Z,26.1
2022-08-17T01:50:00.093Z,26.1
2022-08-17T01:55:00.102Z,26.0
2022-08-17T02:00:00.094Z,26.0
2022-08-17T02:05:00.068Z,25.9
2022-08-17T02:10:01.194Z,25.9
2022-08-17T02:15:00.076Z,25.8
2022-08-17T02:20:00.075Z,25.7
2022-08-17T02:25:02.245Z,25.6
2022-08-17T02:30:00.099Z,25.5
2022-08-17T02:35:00.065Z,25.5
2022-08-17T02:40:00.210Z,25.4
2022-08-17T02:45:00.093Z,25.4
2022-08-17T02:50:00.112Z,25.3
2022-08-17T02:55:00.084Z,25.3
2022-08-17T03:00:00.140Z,25.2
2022-08-17T03:05:00.064Z,25.2
2022-08-17T03:10:00.122Z,25.1
2022-08-17T03:15:00.114Z,25.0
2022-08-17T03:20:00.150Z,25.0
2022-08-17T03:25:00.113Z,25.0
2022-08-17T03:30:00.163Z,24.9
2022-08-17T03:35:00.116Z,24.8
2022-08-17T03:40:00.274Z,24.8
2022-08-17T03:45:00.126Z,24.8
2022-08-17T03:50:00.120Z,24.7
2022-08-17T03:55:00.090Z,24.6
2022-08-17T04:00:00.164Z,24.5
2022-08-17T04:05:00.951Z,24.6
2022-08-17T04:10:00.107Z,24.5
2022-08-17T04:15:00.105Z,24.5
2022-08-17T04:20:00.174Z,24.5
2022-08-17T04:25:00.107Z,24.4
2022-08-17T04:30:00.192Z,24.4
2022-08-17T04:35:00.125Z,24.4
2022-08-17T04:40:03.788Z,24.4
2022-08-17T04:45:00.111Z,24.3
2022-08-17T04:50:00.117Z,24.4
2022-08-17T04:55:00.083Z,24.3
2022-08-17T05:00:00.148Z,24.3
2022-08-17T05:05:00.111Z,24.3
2022-08-17T05:10:00.147Z,24.3
2022-08-17T05:15:00.148Z,24.3
2022-08-17T05:20:00.105Z,24.3
2022-08-17T05:25:00.093Z,24.4
2022-08-17T05:30:00.156Z,24.3
2022-08-17T05:35:00.125Z,24.4
2022-08-17T05:40:00.262Z,24.4
2022-08-17T05:45:00.121Z,24.4
2022-08-17T05:50:00.169Z,24.5
2022-08-17T05:55:00.091Z,24.5
2022-08-17T06:00:00.164Z,24.5
2022-08-17T06:05:00.082Z,24.5
2022-08-17T06:10:00.144Z,24.5
2022-08-17T06:15:00.102Z,24.6
2022-08-17T06:20:00.119Z,24.6
2022-08-17T06:25:00.111Z,24.7
2022-08-17T06:30:00.145Z,24.7
2022-08-17T06:35:00.090Z,24.8
2022-08-17T06:40:00.211Z,24.8
2022-08-17T06:45:00.090Z,24.9
2022-08-17T06:50:00.122Z,24.9
2022-08-17T06:55:00.084Z,25.0
2022-08-17T07:00:00.153Z,25.0
2022-08-17T07:05:00.061Z,25.0
2022-08-17T07:10:00.112Z,25.0
2022-08-17T07:15:00.135Z,25.1
2022-08-17T07:20:00.099Z,25.1
2022-08-17T07:25:00.133Z,25.1
2022-08-17T07:30:00.152Z,25.2
2022-08-17T07:35:00.114Z,25.2
2022-08-17T07:40:15.642Z,25.3
2022-08-17T07:45:00.109Z,25.4
2022-08-17T07:50:00.125Z,25.4
2022-08-17T07:55:00.082Z,25.5
2022-08-17T08:00:01.381Z,25.5
2022-08-17T08:05:01.292Z,25.5
2022-08-17T08:10:00.109Z,25.5
2022-08-17T08:15:00.341Z,25.5
2022-08-17T08:20:00.134Z,25.6
2022-08-17T08:25:00.123Z,25.6
2022-08-17T08:30:00.144Z,25.7
2022-08-17T08:35:02.410Z,25.7
2022-08-17T08:40:00.177Z,25.7
2022-08-17T08:45:04.359Z,25.8
2022-08-17T08:50:03.759Z,25.8
2022-08-17T08:55:00.149Z,25.9
2022-08-17T09:00:01.162Z,25.8
2022-08-17T09:05:15.921Z,25.9
2022-08-17T09:10:00.127Z,25.9
2022-08-17T09:15:00.117Z,26.0
2022-08-17T09:20:00.123Z,26.0
2022-08-17T09:25:00.120Z,26.0
2022-08-17T09:30:00.182Z,26.0
2022-08-17T09:35:00.095Z,26.0
2022-08-17T09:40:00.209Z,26.1
2022-08-17T09:45:00.109Z,26.1
2022-08-17T09:50:00.120Z,26.1
2022-08-17T09:55:00.087Z,26.1
2022-08-17T10:00:00.154Z,26.2
2022-08-17T10:05:00.090Z,26.2
2022-08-17T10:10:00.105Z,26.2
2022-08-17T10:15:00.131Z,26.2
2022-08-17T10:20:01.044Z,26.3
2022-08-17T10:25:02.352Z,26.3
2022-08-17T10:30:00.072Z,26.3
2022-08-17T10:35:00.116Z,26.4
2022-08-17T10:40:00.269Z,26.4
2022-08-17T10:45:00.074Z,26.4
2022-08-17T10:50:00.110Z,26.4
2022-08-17T10:55:00.092Z,26.4
2022-08-17T11:00:00.102Z,26.5
2022-08-17T11:05:00.099Z,26.5
2022-08-17T11:10:00.121Z,26.5
2022-08-17T11:15:00.074Z,26.5
2022-08-17T11:20:00.129Z,26.5
2022-08-17T11:25:00.080Z,26.5
2022-08-17T11:30:02.012Z,26.5
2022-08-17T11:35:00.106Z,26.6
2022-08-17T11:40:00.240Z,26.6
2022-08-17T11:45:00.075Z,26.6
2022-08-17T11:50:00.125Z,26.7
2022-08-17T11:55:12.370Z,26.7
2022-08-17T12:00:00.107Z,26.7
2022-08-17T12:05:00.108Z,26.8
2022-08-17T12:10:01.225Z,26.8
2022-08-17T12:15:10.904Z,26.8
2022-08-17T12:20:00.141Z,26.8
2022-08-17T12:25:00.086Z,26.8
2022-08-17T12:30:00.123Z,26.9
2022-08-17T12:35:00.108Z,26.9
2022-08-17T12:40:00.194Z,26.9
2022-08-17T12:45:00.103Z,26.9
2022-08-17T12:50:00.141Z,27.0
2022-08-17T12:55:00.147Z,27.0
2022-08-17T13:00:00.084Z,27.0
2022-08-17T13:05:00.121Z,27.0
2022-08-17T13:10:00.108Z,27.0
2022-08-17T13:15:00.089Z,27.0
2022-08-17T13:20:00.174Z,27.1
2022-08-17T13:25:00.078Z,27.1
2022-08-17T13:30:01.190Z,27.2
2022-08-17T13:35:08.993Z,27.2
2022-08-17T13:40:00.239Z,27.2
2022-08-17T13:45:00.082Z,27.2
2022-08-17T13:50:00.124Z,27.2
2022-08-17T13:55:00.106Z,27.2
2022-08-17T14:00:00.104Z,27.3
2022-08-17T14:05:00.106Z,27.3
2022-08-17T14:10:00.119Z,27.3
2022-08-17T14:15:00.113Z,27.4
2022-08-17T14:20:00.157Z,27.3
2022-08-17T14:25:00.073Z,27.3
2022-08-17T14:30:00.195Z,27.4
2022-08-17T14:35:00.099Z,27.4
2022-08-17T14:40:00.292Z,27.4
2022-08-17T14:45:00.087Z,27.4
2022-08-17T14:50:00.169Z,27.5
2022-08-17T14:55:00.076Z,27.4
2022-08-17T15:00:00.127Z,27.4
2022-08-17T15:05:00.105Z,27.4
2022-08-17T15:10:00.361Z,27.4
2022-08-17T15:15:00.114Z,27.4
2022-08-17T15:20:00.125Z,27.4
2022-08-17T15:25:00.069Z,27.4
2022-08-17T15:30:00.123Z,27.4
2022-08-17T15:35:00.108Z,27.4
2022-08-17T15:40:00.258Z,27.4
2022-08-17T15:45:00.132Z,27.4
2022-08-17T15:50:00.549Z,27.5
2022-08-17T15:55:00.089Z,27.4
2022-08-17T16:00:00.181Z,27.5
2022-08-17T16:05:00.183Z,27.5
2022-08-17T16:10:00.123Z,27.5
2022-08-17T16:15:00.084Z,27.5
2022-08-17T16:20:00.123Z,27.5
2022-08-17T16:25:00.092Z,27.5
2022-08-17T16:30:01.202Z,27.5
2022-08-17T16:35:00.108Z,27.5
2022-08-17T16:40:00.180Z,27.5
2022-08-17T16:45:00.094Z,27.6
2022-08-17T16:50:00.144Z,27.6
2022-08-17T16:55:00.066Z,27.6
2022-08-17T17:00:00.099Z,27.7
2022-08-17T17:05:00.151Z,27.7
2022-08-17T17:10:00.148Z,27.7
2022-08-17T17:15:00.090Z,27.7
2022-08-17T17:20:00.107Z,27.7
2022-08-17T17:25:00.078Z,27.7
2022-08-17T17:30:00.128Z,27.7
2022-08-17T17:35:00.111Z,27.7
2022-08-17T17:40:00.334Z,27.7
2022-08-17T17:45:00.091Z,27.8
2022-08-17T17:50:00.156Z,27.8
2022-08-17T17:55:00.100Z,27.8
2022-08-17T18:00:00.123Z,27.8
2022-08-17T18:05:00.110Z,27.8
2022-08-17T18:10:00.963Z,27.8
2022-08-17T18:15:00.084Z,27.8
2022-08-17T18:20:00.128Z,27.8
2022-08-17T18:25:00.105Z,27.8
2022-08-17T18:30:00.101Z,27.7
2022-08-17T18:35:00.126Z,27.6
2022-08-17T18:40:00.211Z,27.6
2022-08-17T18:45:00.080Z,27.6
2022-08-17T18:50:00.154Z,27.6
2022-08-17T18:55:00.087Z,27.5
2022-08-17T19:00:00.113Z,27.5
2022-08-17T19:05:00.185Z,27.5
2022-08-17T19:10:00.106Z,27.5
2022-08-17T19:15:00.070Z,27.5
2022-08-17T19:20:00.132Z,27.5
2022-08-17T19:25:02.891Z,27.5
2022-08-17T19:30:03.978Z,27.5
2022-08-17T19:35:01.005Z,27.5
2022-08-17T19:40:00.198Z,27.5
2022-08-17T19:45:00.099Z,27.5
2022-08-17T19:50:00.118Z,27.6
2022-08-17T19:55:00.114Z,27.6
2022-08-17T20:00:00.084Z,27.5
2022-08-17T20:05:00.953Z,27.6
2022-08-17T20:10:00.117Z,27.6
2022-08-17T20:15:00.088Z,27.6
2022-08-17T20:20:00.147Z,27.6
2022-08-17T20:25:00.090Z,27.6
2022-08-17T20:30:00.121Z,27.6
2022-08-17T20:35:00.096Z,27.5
2022-08-17T20:40:00.159Z,27.5
2022-08-17T20:45:00.097Z,27.6
2022-08-17T20:50:00.123Z,27.5
2022-08-17T20:55:00.094Z,27.5
2022-08-17T21:00:00.100Z,27.6
2022-08-17T21:05:01.056Z,27.6
2022-08-17T21:10:00.119Z,27.5
2022-08-17T21:15:00.112Z,27.5
2022-08-17T21:20:13.530Z,27.5
2022-08-17T21:25:00.064Z,27.6
2022-08-17T21:30:00.100Z,27.5
2022-08-17T21:35:00.110Z,27.5
2022-08-17T21:40:00.267Z,27.5
2022-08-17T21:45:00.104Z,27.6
2022-08-17T21:50:00.132Z,27.5
2022-08-17T21:55:00.094Z,27.5
2022-08-17T22:00:00.126Z,27.6
2022-08-17T22:05:00.118Z,27.5
2022-08-17T22:10:00.105Z,27.5
2022-08-17T22:15:00.083Z,27.5
2022-08-17T22:20:00.146Z,27.5
2022-08-17T22:25:00.073Z,27.5
2022-08-17T22:30:00.086Z,27.5
2022-08-17T22:35:00.124Z,27.5
2022-08-17T22:40:00.219Z,27.5
2022-08-17T22:45:00.084Z,27.5
2022-08-17T22:50:00.171Z,27.5
2022-08-17T22:55:00.101Z,27.5
2022-08-17T23:00:00.119Z,27.5
2022-08-17T23:05:00.102Z,27.5
2022-08-17T23:10:00.134Z,27.5
2022-08-17T23:15:00.079Z,27.5
2022-08-17T23:20:00.142Z,27.5
2022-08-17T23:25:00.097Z,27.5
2022-08-17T23:30:00.136Z,27.5
2022-08-17T23:35:00.097Z,27.5
2022-08-17T23:40:00.214Z,27.5
2022-08-17T23:45:00.089Z,27.5
2022-08-17T23:50:01.665Z,27.5
2022-08-17T23:55:00.094Z,27.5
